• Join FlightAware (Why Join?)
  • Login
  • US Flag 
Gobble Gobble! 
07:24AM EST


 

Airport Tracker/Info


-or-


 

Live Flight TrackerFlight Track Log ✈ N498QS ✈ 30-Apr-2013 ✈ KIAD - KAVP

Flight Track Log - Related Links

Times and Time Zones

All times are in EDT time to prevent confusion due to time zone crossing. See the N498QS flight status page for this flight to view local times or setup timezone preferences in your user account.

Time Position Orientation Groundspeed Altitude Reporting Facility
EDT Latitude Longitude Course Direction KTS MPH feet Rate Location/Type
01:07PM 38.9667 -77.5333 28° Northeast 221 254 3,200  Level Potomac TRACON
01:08PM 39.0333 -77.6000 322° Northwest 285 328 7,200 3,540 Climbing Potomac TRACON
01:09PM 39.1000 -77.6500 330° Northwest 299 344 10,000 2,100 Climbing Potomac TRACON
01:10PM 39.1331 -77.6681 337° Northwest 319 367 10,000 120 Level Washington Center
01:11PM 39.2175 -77.7294 331° Northwest 324 373 10,200 1,800 Climbing Washington Center
01:12PM 39.3039 -77.7908 331° Northwest 343 395 13,700 1,920 Climbing Washington Center
01:13PM 39.4502 -77.1063 28° Northeast  Level Estimated
01:13PM 39.3925 -77.8419 336° Northwest 348 400 14,000  Level Washington Center
01:14PM 39.4925 -77.8506 356° North 348 400 14,000  Level Washington Center
01:15PM 39.5944 -77.8536 359° North 354 407 14,000 720 Level Washington Center
01:17PM 39.7503 -77.7542 26° Northeast 360 414 16,200 1,020 Climbing New York Center
01:18PM 39.8394 -77.6575 40° Northeast 368 423 17,000 420 Climbing New York Center
01:19PM 39.9200 -77.5625 42° Northeast 382 440 17,100  Climbing New York Center
01:20PM 39.9986 -77.4644 44° Northeast 387 445 17,000 -480 Descending New York Center
01:21PM 40.0750 -77.3686 44° Northeast 387 445 16,200 -780 Descending New York Center
01:22PM 40.1494 -77.2669 46° Northeast 387 445 15,500 -840 Descending New York Center
01:23PM 40.2233 -77.1733 44° Northeast 375 432 14,600 -840 Descending New York Center
01:24PM 40.2969 -77.0819 43° Northeast 369 425 13,900 -780 Descending New York Center
01:25PM 40.3858 -77.0167 29° Northeast 364 419 13,100 -660 Descending New York Center
01:26PM 40.4747 -76.9536 28° Northeast 364 419 12,600 -720 Descending New York Center
01:27PM 40.5525 -76.9006 27° Northeast 364 419 11,700 -840 Descending New York Center
01:28PM 40.6517 -76.8356 26° Northeast 358 412 11,000 -300 Descending New York Center
01:29PM 40.7422 -76.7778 26° Northeast 358 412 11,100  Climbing New York Center
01:30PM 40.8197 -76.7269 26° Northeast 352 405 11,000 -180 Descending New York Center
01:31PM 40.9108 -76.6553 31° Northeast 352 405 10,800 -660 Descending New York Center
01:32PM 40.9611 -76.5664 53° Northeast 324 373 9,700 -960 Descending New York Center
01:33PM 41.0053 -76.4764 57° Northeast 296 341 9,000 -360 Descending New York Center
01:34PM 41.0508 -76.3922 54° Northeast 296 341 9,000  Level New York Center
01:35PM 41.0900 -76.3128 57° Northeast 285 328 9,000 -420 Level New York Center
01:36PM 41.1358 -76.2258 55° Northeast 285 328 8,200 -1,440 Descending New York Center
01:37PM 41.1839 -76.1303 56° Northeast 285 328 6,100 -1,440 Descending New York Center
01:39PM 41.2642 -75.9656 57° Northeast 268 308 4,000 -900 Descending New York Center
01:40PM 41.3031 -75.8858 57° Northeast 268 308 3,500 -660 Descending New York Center
01:41PM 41.3292 -75.8075 66° East 251 289 2,700 -540 Descending New York Center
01:42PM 41.3647 -75.7550 48° Northeast 213 245 2,500 -420 Descending New York Center
01:43PM 41.3833 -75.7119 60° Northeast 168 193 1,900 -480 Descending New York Center
01:44PM 41.3825 -75.6761 92° East 121 139 1,600 3,600 Descending New York Center
01:45PM 41.3947 -75.6356 68° East 121 139 9,000 7,740 Climbing New York Center